Terminal Aerodrome Forecast
Issued by NWS

Home | Current Version | Previous Version | Graphics & Text | Print | Product List | Glossary On
Versions: 1 2 3 4 5 6 7 8 9 10 11 12 13 14 15 16 17 18 19 20 21
304
FTUS43 KGRB 280715 AAA
TAFMTW
TAF AMD
KMTW 280715Z 2807/2906 03006KT P6SM VCSH SCT009 BKN018
      TEMPO 2808/2812 4SM SHRA BR BKN009
     FM281400 04009KT P6SM VCSH SCT010 BKN035
     FM282000 03010KT P6SM BKN040
     FM290100 02008KT P6SM SCT040 BKN120=

USA.gov is the U.S. government's official web portal to all federal, state and local government web resources and services.